createdAt,value
2023-03-06T00:00:51.060Z,19.17
2023-03-06T00:03:19.158Z,18.60
2023-03-06T00:05:46.895Z,21.98
2023-03-06T00:08:14.496Z,17.27
2023-03-06T00:10:42.145Z,23.15
2023-03-06T00:13:12.620Z,20.42
2023-03-06T00:15:40.231Z,24.92
2023-03-06T00:18:09.357Z,27.65
2023-03-06T00:20:37.659Z,26.80
2023-03-06T00:23:05.169Z,27.30
2023-03-06T00:25:36.619Z,27.05
2023-03-06T00:28:04.102Z,25.52
2023-03-06T00:30:32.260Z,30.80
2023-03-06T00:32:59.732Z,30.73
2023-03-06T00:35:28.800Z,29.40
2023-03-06T00:37:57.714Z,30.27
2023-03-06T00:40:25.231Z,27.80
2023-03-06T00:42:52.681Z,24.88
2023-03-06T00:45:20.195Z,25.30
2023-03-06T00:47:47.688Z,31.40
2023-03-06T00:50:15.209Z,23.15
2023-03-06T00:52:44.086Z,25.83
2023-03-06T00:55:11.846Z,25.98
2023-03-06T00:57:39.319Z,24.73
2023-03-06T01:00:08.802Z,27.65
2023-03-06T01:02:36.322Z,27.60
2023-03-06T01:05:03.892Z,23.55
2023-03-06T01:07:33.879Z,24.45
2023-03-06T01:10:02.813Z,23.70
2023-03-06T01:12:30.308Z,25.13
2023-03-06T01:14:57.810Z,24.63
2023-03-06T01:17:25.342Z,23.00
2023-03-06T01:19:52.830Z,29.55
2023-03-06T01:22:20.343Z,27.40
2023-03-06T01:24:47.845Z,27.75
2023-03-06T01:27:16.651Z,29.88
2023-03-06T01:29:44.091Z,30.90
2023-03-06T01:32:11.696Z,30.13
2023-03-06T01:34:39.223Z,26.90
2023-03-06T01:37:06.750Z,29.58
2023-03-06T01:39:34.200Z,20.50
2023-03-06T01:42:01.653Z,20.27
2023-03-06T01:44:30.548Z,21.60
2023-03-06T01:46:57.990Z,20.30
2023-03-06T01:49:29.542Z,20.45
2023-03-06T01:52:02.480Z,16.25
2023-03-06T01:54:33.785Z,23.33
2023-03-06T01:57:05.099Z,20.60
2023-03-06T01:59:36.597Z,18.35
2023-03-06T02:02:06.865Z,16.00
2023-03-06T02:04:35.164Z,14.82
2023-03-06T02:07:05.098Z,16.08
2023-03-06T02:09:34.599Z,16.33
2023-03-06T02:12:02.615Z,18.48
2023-03-06T02:14:31.025Z,15.60
2023-03-06T02:16:59.925Z,19.60
2023-03-06T02:19:37.758Z,19.10
2023-03-06T02:22:05.325Z,20.20
2023-03-06T02:24:41.141Z,22.92
2023-03-06T02:27:14.119Z,22.35
2023-03-06T02:29:41.998Z,23.20
2023-03-06T02:32:10.435Z,21.65
2023-03-06T02:34:52.110Z,20.98
2023-03-06T02:37:20.307Z,21.60
2023-03-06T02:39:50.723Z,24.30
2023-03-06T02:42:21.620Z,24.38
2023-03-06T02:44:49.968Z,21.15
2023-03-06T02:47:17.487Z,22.83
2023-03-06T02:49:44.917Z,19.95
2023-03-06T02:52:12.428Z,24.40
2023-03-06T02:54:39.978Z,22.40
2023-03-06T02:57:07.521Z,23.75
2023-03-06T02:59:36.334Z,17.92
2023-03-06T03:02:03.788Z,22.85
2023-03-06T03:04:31.382Z,22.17
2023-03-06T03:06:58.871Z,24.05
2023-03-06T03:09:26.415Z,21.23
2023-03-06T03:11:53.930Z,21.50
2023-03-06T03:14:21.446Z,26.45
2023-03-06T03:16:50.243Z,25.67
2023-03-06T03:19:17.790Z,27.27
2023-03-06T03:21:45.260Z,26.60
2023-03-06T03:24:12.784Z,27.10
2023-03-06T03:26:40.344Z,28.77
2023-03-06T03:29:08.002Z,33.17
2023-03-06T03:31:35.493Z,26.45
2023-03-06T03:34:04.704Z,30.55
2023-03-06T03:36:32.198Z,31.70
2023-03-06T03:39:00.148Z,32.28
2023-03-06T03:41:27.645Z,31.52
2023-03-06T03:43:55.171Z,31.55
2023-03-06T03:46:22.795Z,36.10
2023-03-06T03:48:50.297Z,32.90
2023-03-06T03:51:19.195Z,32.53
2023-03-06T03:53:46.834Z,30.85
2023-03-06T03:56:14.608Z,30.08
2023-03-06T03:58:42.170Z,31.73
2023-03-06T04:01:09.673Z,34.22
2023-03-06T04:03:37.150Z,32.72
2023-03-06T04:06:04.877Z,33.70
2023-03-06T04:08:33.903Z,33.08
2023-03-06T04:11:01.463Z,32.20
2023-03-06T04:13:28.964Z,30.75
2023-03-06T04:15:57.165Z,31.00
2023-03-06T04:18:24.877Z,27.73
2023-03-06T04:20:52.386Z,30.63
2023-03-06T04:23:20.408Z,27.05
2023-03-06T04:25:49.212Z,24.02
2023-03-06T04:28:17.621Z,26.13
2023-03-06T04:30:45.076Z,23.08
2023-03-06T04:33:12.626Z,19.95
2023-03-06T04:35:40.177Z,22.52
2023-03-06T04:38:07.656Z,22.65
2023-03-06T04:40:36.787Z,22.40
2023-03-06T04:43:06.186Z,20.60
2023-03-06T04:45:35.266Z,24.02
2023-03-06T04:48:03.206Z,19.58
2023-03-06T04:50:32.353Z,20.27
2023-03-06T04:53:01.230Z,18.58
2023-03-06T04:55:29.265Z,17.00
2023-03-06T04:57:58.798Z,19.00
2023-03-06T05:00:31.246Z,17.42
2023-03-06T05:03:00.239Z,16.52
2023-03-06T05:05:28.688Z,22.23
2023-03-06T05:07:56.571Z,19.48
2023-03-06T05:10:24.107Z,22.02
2023-03-06T05:12:51.668Z,23.45
2023-03-06T05:15:19.423Z,19.95
2023-03-06T05:17:48.411Z,21.92
2023-03-06T05:20:16.793Z,18.98
2023-03-06T05:22:44.351Z,19.42
2023-03-06T05:25:11.874Z,19.58
2023-03-06T05:27:39.557Z,21.23
2023-03-06T05:30:08.348Z,20.75
2023-03-06T05:32:36.122Z,24.40
2023-03-06T05:35:05.962Z,27.48
2023-03-06T05:37:34.997Z,27.65
2023-03-06T05:40:06.543Z,28.38
2023-03-06T05:42:33.997Z,29.55
2023-03-06T05:45:04.406Z,31.65
2023-03-06T05:47:32.423Z,28.85
2023-03-06T05:50:00.056Z,29.60
2023-03-06T05:52:28.906Z,30.65
2023-03-06T05:54:56.360Z,26.98
2023-03-06T05:57:25.064Z,27.88
2023-03-06T05:59:52.955Z,30.40
2023-03-06T06:02:20.866Z,27.02
2023-03-06T06:04:48.613Z,30.67
2023-03-06T06:07:17.390Z,31.55
2023-03-06T06:09:46.268Z,31.38
2023-03-06T06:12:14.713Z,28.98
2023-03-06T06:14:42.214Z,27.38
2023-03-06T06:17:10.318Z,29.13
2023-03-06T06:19:37.799Z,25.90
2023-03-06T06:22:05.742Z,29.77
2023-03-06T06:24:33.601Z,25.85
2023-03-06T06:27:03.957Z,28.40
2023-03-06T06:29:32.595Z,25.85
2023-03-06T06:32:00.629Z,26.42
2023-03-06T06:34:29.023Z,28.13
2023-03-06T06:36:56.474Z,30.77
2023-03-06T06:39:24.522Z,31.63
2023-03-06T06:42:09.527Z,29.33
2023-03-06T06:44:41.530Z,36.75
2023-03-06T06:47:22.351Z,33.58
2023-03-06T06:49:51.256Z,34.58
2023-03-06T06:52:19.453Z,37.92
2023-03-06T06:54:46.964Z,35.42
2023-03-06T06:57:14.660Z,30.25
2023-03-06T06:59:46.105Z,36.95
2023-03-06T07:02:14.596Z,32.38
2023-03-06T07:05:00.278Z,30.95
2023-03-06T07:07:31.830Z,32.75
2023-03-06T07:09:59.363Z,35.83
2023-03-06T07:12:26.874Z,33.60
2023-03-06T07:14:57.710Z,33.53
2023-03-06T07:17:25.186Z,32.47
2023-03-06T07:19:52.666Z,31.70
2023-03-06T07:22:24.284Z,30.75
2023-03-06T07:24:56.877Z,31.55
2023-03-06T07:27:26.058Z,33.20
2023-03-06T07:29:57.027Z,29.27
2023-03-06T07:32:30.704Z,28.60
2023-03-06T07:35:13.721Z,25.10
2023-03-06T07:37:48.561Z,28.80
2023-03-06T07:40:16.118Z,30.88
2023-03-06T07:42:43.825Z,32.25
2023-03-06T07:45:13.443Z,33.15
2023-03-06T07:47:41.399Z,30.65
2023-03-06T07:50:09.809Z,32.83
2023-03-06T07:52:37.510Z,31.38
2023-03-06T07:55:05.656Z,41.35
2023-03-06T07:57:33.235Z,36.30
2023-03-06T08:00:00.781Z,33.30
2023-03-06T08:02:29.616Z,33.13
2023-03-06T08:04:57.861Z,35.85
2023-03-06T08:07:25.629Z,32.80
2023-03-06T08:09:53.129Z,35.70
2023-03-06T08:12:20.600Z,35.25
2023-03-06T08:14:48.089Z,34.38
2023-03-06T08:17:15.737Z,35.17
2023-03-06T08:19:44.546Z,31.33
2023-03-06T08:22:13.855Z,33.58
2023-03-06T08:24:41.353Z,31.58
2023-03-06T08:27:08.779Z,32.33
2023-03-06T08:29:36.240Z,28.85
2023-03-06T08:32:03.734Z,27.95
2023-03-06T08:34:31.713Z,33.08
2023-03-06T08:37:00.555Z,28.70
2023-03-06T08:39:28.141Z,25.08
2023-03-06T08:41:55.615Z,27.60
2023-03-06T08:44:23.188Z,27.45
2023-03-06T08:46:50.658Z,25.25
2023-03-06T08:49:18.139Z,20.92
2023-03-06T08:51:45.562Z,23.35
2023-03-06T08:54:14.667Z,20.85
2023-03-06T08:56:42.209Z,21.00
2023-03-06T08:59:11.948Z,26.33
2023-03-06T09:01:40.196Z,21.75
2023-03-06T09:04:09.771Z,22.77
2023-03-06T09:06:40.511Z,19.63
2023-03-06T09:09:08.859Z,22.83
2023-03-06T09:11:37.831Z,20.00
2023-03-06T09:14:05.802Z,22.10
2023-03-06T09:16:33.392Z,20.30
2023-03-06T09:19:00.885Z,24.95
2023-03-06T09:21:28.744Z,23.75
2023-03-06T09:23:56.390Z,24.88
2023-03-06T09:26:32.840Z,21.83
2023-03-06T09:29:08.906Z,31.33
2023-03-06T09:31:36.334Z,26.30
2023-03-06T09:34:03.877Z,25.25
2023-03-06T09:36:31.338Z,24.25
2023-03-06T09:38:58.853Z,27.23
2023-03-06T09:41:30.545Z,26.27
2023-03-06T09:44:04.931Z,25.92
2023-03-06T09:46:47.085Z,28.67
2023-03-06T09:49:38.010Z,27.80
2023-03-06T09:52:18.684Z,26.70
2023-03-06T09:54:47.895Z,30.90
2023-03-06T09:57:22.670Z,28.63
2023-03-06T09:59:53.822Z,28.45
2023-03-06T10:02:29.879Z,28.58
2023-03-06T10:05:01.676Z,27.00
2023-03-06T10:07:39.916Z,32.25
2023-03-06T10:10:12.699Z,27.25
2023-03-06T10:12:45.125Z,35.58
2023-03-06T10:15:17.180Z,30.85
2023-03-06T10:17:46.309Z,32.45
2023-03-06T10:20:22.360Z,33.30
2023-03-06T10:23:33.248Z,33.47
2023-03-06T10:26:03.271Z,33.60
2023-03-06T10:28:35.608Z,28.92
2023-03-06T10:31:10.578Z,31.27
2023-03-06T10:33:55.504Z,33.90
2023-03-06T10:36:26.916Z,30.83
2023-03-06T10:38:56.588Z,33.63
2023-03-06T10:41:28.377Z,35.15
2023-03-06T10:44:19.499Z,32.25
2023-03-06T10:46:48.893Z,31.50
2023-03-06T10:49:33.170Z,32.22
2023-03-06T10:52:03.528Z,34.25
2023-03-06T10:54:33.302Z,32.05
2023-03-06T10:57:19.750Z,36.08
2023-03-06T10:59:55.667Z,30.65
2023-03-06T11:02:28.933Z,34.20
2023-03-06T11:05:00.185Z,37.70
2023-03-06T11:07:30.067Z,32.88
2023-03-06T11:10:12.903Z,31.25
2023-03-06T11:12:42.428Z,33.03
2023-03-06T11:15:18.343Z,24.52
2023-03-06T11:17:55.174Z,26.05
2023-03-06T11:20:26.361Z,29.42
2023-03-06T11:22:57.920Z,27.60
2023-03-06T11:25:31.300Z,31.08
2023-03-06T11:28:03.784Z,29.40
2023-03-06T11:30:38.910Z,32.22
2023-03-06T11:33:18.156Z,32.17
2023-03-06T11:35:57.855Z,35.83
2023-03-06T11:38:34.840Z,33.25
2023-03-06T11:41:06.742Z,34.83
2023-03-06T11:43:42.163Z,34.92
2023-03-06T11:48:47.552Z,28.35
2023-03-06T11:51:20.316Z,25.65
2023-03-06T11:53:50.821Z,30.67
2023-03-06T11:56:32.038Z,27.60
2023-03-06T11:59:14.192Z,28.48
2023-03-06T12:01:47.679Z,25.92
2023-03-06T12:04:38.822Z,24.40
2023-03-06T12:07:20.379Z,26.67
2023-03-06T12:09:55.345Z,19.15
2023-03-06T12:12:38.586Z,23.90
2023-03-06T12:15:19.991Z,14.73
2023-03-06T12:17:57.400Z,16.38
2023-03-06T12:20:40.919Z,20.17
2023-03-06T12:23:21.958Z,15.70
2023-03-06T12:25:54.868Z,13.77
2023-03-06T12:28:46.296Z,11.63
2023-03-06T12:31:24.951Z,12.02
2023-03-06T12:34:02.528Z,16.33
2023-03-06T12:36:39.766Z,13.80
2023-03-06T12:39:11.310Z,18.02
2023-03-06T12:41:46.334Z,18.05
2023-03-06T12:44:28.163Z,18.55
2023-03-06T12:46:59.399Z,15.35
2023-03-06T12:49:32.387Z,15.60
2023-03-06T12:52:02.114Z,18.58
2023-03-06T12:54:34.396Z,16.08
2023-03-06T12:57:02.060Z,20.05
2023-03-06T12:59:44.155Z,17.95
2023-03-06T13:02:30.037Z,15.20
2023-03-06T13:05:11.713Z,16.17
2023-03-06T13:07:53.532Z,15.30
2023-03-06T13:10:27.803Z,15.27
2023-03-06T13:12:57.275Z,13.63
2023-03-06T13:15:42.516Z,14.70
2023-03-06T13:18:47.502Z,16.15
2023-03-06T13:21:52.754Z,13.60
2023-03-06T13:24:23.013Z,14.88
2023-03-06T13:27:02.978Z,16.40
2023-03-06T13:29:54.280Z,17.05
2023-03-06T13:32:31.486Z,13.43
2023-03-06T13:34:58.996Z,12.93
2023-03-06T13:37:53.577Z,10.98
2023-03-06T13:40:33.187Z,14.90
2023-03-06T13:43:19.097Z,12.82
2023-03-06T13:45:49.003Z,9.48
2023-03-06T13:48:43.782Z,10.95
2023-03-06T13:51:23.001Z,11.43
2023-03-06T13:54:17.780Z,9.82
2023-03-06T13:57:05.850Z,11.23
2023-03-06T14:00:08.287Z,9.63
2023-03-06T14:02:54.486Z,8.68
2023-03-06T14:05:22.674Z,7.93
2023-03-06T14:08:03.309Z,9.32
2023-03-06T14:10:34.729Z,12.52
2023-03-06T14:13:04.869Z,9.90
2023-03-06T14:15:45.773Z,9.25
2023-03-06T14:18:20.474Z,8.68
2023-03-06T14:20:52.844Z,9.55
2023-03-06T14:23:28.572Z,8.98
2023-03-06T14:26:02.124Z,9.35
2023-03-06T14:28:31.376Z,8.35
2023-03-06T14:31:01.960Z,7.38
2023-03-06T14:33:37.727Z,7.40
2023-03-06T14:36:10.482Z,7.30
2023-03-06T14:38:45.032Z,11.70
2023-03-06T14:41:14.220Z,7.75
2023-03-06T14:43:41.755Z,10.27
2023-03-06T14:46:20.633Z,10.73
2023-03-06T14:48:50.073Z,10.57
2023-03-06T14:51:20.906Z,10.30
2023-03-06T14:53:50.266Z,11.23
2023-03-06T14:56:19.985Z,12.45
2023-03-06T14:58:53.406Z,14.52
2023-03-06T15:01:30.011Z,13.02
2023-03-06T15:03:59.920Z,14.48
2023-03-06T15:06:33.155Z,13.55
2023-03-06T15:09:05.848Z,17.25
2023-03-06T15:11:52.735Z,17.90
2023-03-06T15:14:22.333Z,16.05
2023-03-06T15:16:51.161Z,16.83
2023-03-06T15:19:20.311Z,17.88
2023-03-06T15:21:49.572Z,15.77
2023-03-06T15:24:35.568Z,16.17
2023-03-06T15:27:04.867Z,17.67
2023-03-06T15:29:32.885Z,18.98
2023-03-06T15:32:32.189Z,20.90
2023-03-06T15:35:29.379Z,17.98
2023-03-06T15:37:57.616Z,17.98
2023-03-06T15:40:27.304Z,18.02
2023-03-06T15:42:55.104Z,17.63
2023-03-06T15:45:24.459Z,24.58
2023-03-06T15:47:55.583Z,21.45
2023-03-06T15:50:24.483Z,20.10
2023-03-06T15:52:52.538Z,25.35
2023-03-06T15:55:23.342Z,16.63
2023-03-06T15:57:52.828Z,18.90
2023-03-06T16:00:28.307Z,17.95
2023-03-06T16:02:58.693Z,19.33
2023-03-06T16:05:27.892Z,15.40
2023-03-06T16:07:55.723Z,17.17
2023-03-06T16:10:25.339Z,17.50
2023-03-06T16:12:56.534Z,18.60
2023-03-06T16:15:28.732Z,16.70
2023-03-06T16:17:57.887Z,18.63
2023-03-06T16:20:27.329Z,16.92
2023-03-06T16:22:55.183Z,15.57
2023-03-06T16:25:23.787Z,17.42
2023-03-06T16:27:55.565Z,18.23
2023-03-06T16:30:24.221Z,20.60
2023-03-06T16:32:51.985Z,17.63
2023-03-06T16:35:20.902Z,18.10
2023-03-06T16:37:48.500Z,21.42
2023-03-06T16:40:22.027Z,18.42
2023-03-06T16:42:49.920Z,19.33
2023-03-06T16:45:19.300Z,18.80
2023-03-06T16:47:48.000Z,19.05
2023-03-06T16:50:26.460Z,18.58
2023-03-06T16:52:55.526Z,19.77
2023-03-06T16:55:23.865Z,23.95
2023-03-06T16:57:51.777Z,22.67
2023-03-06T17:00:21.189Z,22.92
2023-03-06T17:02:49.465Z,23.80
2023-03-06T17:05:17.199Z,28.17
2023-03-06T17:07:46.084Z,24.48
2023-03-06T17:10:16.593Z,23.05
2023-03-06T17:12:44.682Z,22.83
2023-03-06T17:15:12.937Z,23.60
2023-03-06T17:17:40.468Z,25.60
2023-03-06T17:20:09.364Z,25.70
2023-03-06T17:22:38.596Z,28.70
2023-03-06T17:25:09.349Z,26.05
2023-03-06T17:27:37.470Z,24.50
2023-03-06T17:30:06.337Z,26.73
2023-03-06T17:32:34.007Z,30.42
2023-03-06T17:35:01.512Z,28.98
2023-03-06T17:37:29.309Z,26.23
2023-03-06T17:39:56.784Z,26.15
2023-03-06T17:42:25.543Z,24.73
2023-03-06T17:44:53.269Z,27.70
2023-03-06T17:47:20.747Z,28.02
2023-03-06T17:49:48.224Z,24.52
2023-03-06T17:52:15.720Z,26.15
2023-03-06T17:54:43.239Z,20.35
2023-03-06T17:57:10.717Z,25.42
2023-03-06T17:59:39.559Z,21.85
2023-03-06T18:02:07.543Z,19.08
2023-03-06T18:04:35.078Z,20.85
2023-03-06T18:07:02.604Z,19.35
2023-03-06T18:09:30.256Z,21.95
2023-03-06T18:11:57.731Z,22.00
2023-03-06T18:14:25.263Z,26.13
2023-03-06T18:16:54.088Z,20.60
2023-03-06T18:19:21.682Z,23.90
2023-03-06T18:21:49.139Z,25.77
2023-03-06T18:24:16.645Z,25.08
2023-03-06T18:26:44.169Z,25.90
2023-03-06T18:29:11.647Z,24.58
2023-03-06T18:31:40.753Z,25.17
2023-03-06T18:34:11.873Z,26.13
2023-03-06T18:36:42.241Z,22.90
2023-03-06T18:39:12.647Z,24.48
2023-03-06T18:41:40.306Z,23.63
2023-03-06T18:44:08.185Z,22.35
2023-03-06T18:46:38.318Z,25.15
2023-03-06T18:49:06.515Z,23.20
2023-03-06T18:51:35.915Z,22.90
2023-03-06T18:54:05.770Z,23.95
2023-03-06T18:56:33.998Z,27.52
2023-03-06T18:59:03.348Z,26.27
2023-03-06T19:01:31.377Z,26.30
2023-03-06T19:04:01.046Z,26.35
2023-03-06T19:06:28.983Z,27.20
2023-03-06T19:08:59.372Z,30.63
2023-03-06T19:11:27.757Z,29.75
2023-03-06T19:13:55.481Z,30.13
2023-03-06T19:16:25.253Z,32.38
2023-03-06T19:18:55.055Z,26.80
2023-03-06T19:21:24.001Z,21.55
2023-03-06T19:23:52.009Z,24.77
2023-03-06T19:26:21.373Z,25.60
2023-03-06T19:28:49.593Z,27.83
2023-03-06T19:31:20.028Z,28.67
2023-03-06T19:33:48.774Z,25.90
2023-03-06T19:36:18.315Z,28.08
2023-03-06T19:38:50.206Z,26.58
2023-03-06T19:41:17.768Z,24.98
2023-03-06T19:43:52.034Z,23.00
2023-03-06T19:46:20.129Z,24.23
2023-03-06T19:48:48.255Z,28.60
2023-03-06T19:51:15.834Z,28.00
2023-03-06T19:53:43.289Z,25.17
2023-03-06T19:56:14.717Z,26.92
2023-03-06T19:58:42.518Z,28.25
2023-03-06T20:01:13.777Z,28.70
2023-03-06T20:03:41.788Z,23.80
2023-03-06T20:06:13.778Z,31.27
2023-03-06T20:08:41.275Z,26.80
2023-03-06T20:11:16.677Z,30.55
2023-03-06T20:16:17.264Z,26.60
2023-03-06T20:18:45.366Z,25.83
2023-03-06T20:21:13.038Z,28.33
2023-03-06T20:23:40.774Z,26.60
2023-03-06T20:26:11.786Z,26.63
2023-03-06T20:28:39.980Z,24.25
2023-03-06T20:31:08.907Z,26.02
2023-03-06T20:33:37.822Z,30.05
2023-03-06T20:36:06.195Z,24.23
2023-03-06T20:38:33.680Z,24.02
2023-03-06T20:41:01.181Z,22.90
2023-03-06T20:43:28.624Z,26.35
2023-03-06T20:45:57.837Z,24.75
2023-03-06T20:48:25.477Z,26.27
2023-03-06T20:51:01.928Z,26.98
2023-03-06T20:53:29.475Z,27.40
2023-03-06T20:55:57.285Z,27.08
2023-03-06T20:58:28.327Z,25.85
2023-03-06T21:00:55.787Z,27.73
2023-03-06T21:03:24.026Z,22.85
2023-03-06T21:05:51.541Z,25.75
2023-03-06T21:08:20.358Z,22.02
2023-03-06T21:10:48.033Z,27.55
2023-03-06T21:13:16.107Z,26.63
2023-03-06T21:15:45.525Z,25.98
2023-03-06T21:18:13.440Z,30.30
2023-03-06T21:20:42.317Z,21.92
2023-03-06T21:23:10.039Z,24.80
2023-03-06T21:25:38.872Z,26.52
2023-03-06T21:28:06.371Z,23.85
2023-03-06T21:30:35.176Z,27.52
2023-03-06T21:33:03.772Z,25.13
2023-03-06T21:35:32.404Z,25.40
2023-03-06T21:37:59.891Z,25.45
2023-03-06T21:40:28.154Z,27.05
2023-03-06T21:42:56.978Z,26.40
2023-03-06T21:45:26.433Z,25.42
2023-03-06T21:47:55.059Z,30.02
2023-03-06T21:50:23.581Z,30.55
2023-03-06T21:52:51.221Z,28.10
2023-03-06T21:55:19.049Z,32.17
2023-03-06T21:57:51.224Z,30.30
2023-03-06T22:00:23.038Z,31.85
2023-03-06T22:02:51.027Z,29.75
2023-03-06T22:05:18.558Z,28.33
2023-03-06T22:07:46.205Z,27.30
2023-03-06T22:10:14.202Z,30.33
2023-03-06T22:12:41.676Z,27.15
2023-03-06T22:15:10.499Z,31.05
2023-03-06T22:17:39.689Z,30.02
2023-03-06T22:20:07.876Z,27.25
2023-03-06T22:22:35.303Z,34.03
2023-03-06T22:25:03.150Z,28.98
2023-03-06T22:27:30.741Z,27.33
2023-03-06T22:29:58.219Z,28.10
2023-03-06T22:32:25.792Z,25.38
2023-03-06T22:34:54.691Z,27.35
2023-03-06T22:37:22.140Z,25.88
2023-03-06T22:39:49.586Z,27.50
2023-03-06T22:42:17.137Z,26.20
2023-03-06T22:44:44.854Z,25.38
2023-03-06T22:47:12.378Z,25.85
2023-03-06T22:49:40.104Z,25.80
2023-03-06T22:52:09.088Z,24.88
2023-03-06T22:54:36.880Z,24.90
2023-03-06T22:57:04.448Z,24.77
2023-03-06T22:59:32.030Z,23.70
2023-03-06T23:01:59.465Z,27.80
2023-03-06T23:04:26.987Z,24.33
2023-03-06T23:06:54.484Z,23.15
2023-03-06T23:09:25.054Z,23.92
2023-03-06T23:11:52.788Z,22.77
2023-03-06T23:14:20.700Z,24.40
2023-03-06T23:16:48.210Z,23.05
2023-03-06T23:19:15.807Z,22.35
2023-03-06T23:21:43.345Z,28.10
2023-03-06T23:24:10.839Z,29.08
2023-03-06T23:26:40.584Z,26.92
2023-03-06T23:29:08.092Z,29.77
2023-03-06T23:31:35.562Z,26.98
2023-03-06T23:34:04.018Z,28.10
2023-03-06T23:36:32.038Z,32.10
2023-03-06T23:38:59.525Z,29.02
2023-03-06T23:41:27.214Z,29.95
2023-03-06T23:43:56.022Z,28.90
2023-03-06T23:46:23.820Z,26.63
2023-03-06T23:48:51.633Z,29.02
2023-03-06T23:51:21.336Z,31.55
2023-03-06T23:53:55.084Z,24.98
2023-03-06T23:56:22.919Z,26.30
2023-03-06T23:58:50.410Z,22.50
